createdAt,value
2023-05-15T00:00:24.068Z,9.16
2023-05-15T00:00:54.982Z,9.54
2023-05-15T00:01:25.860Z,10.23
2023-05-15T00:01:56.822Z,10.56
2023-05-15T00:02:27.956Z,9.29
2023-05-15T00:02:58.662Z,10.04
2023-05-15T00:03:29.479Z,9.66
2023-05-15T00:04:00.157Z,9.31
2023-05-15T00:04:31.105Z,9.92
2023-05-15T00:05:01.739Z,8.76
2023-05-15T00:05:32.138Z,9.32
2023-05-15T00:06:03.103Z,9.21
2023-05-15T00:06:34.020Z,9.69
2023-05-15T00:07:04.919Z,10.40
2023-05-15T00:07:35.801Z,9.80
2023-05-15T00:08:06.667Z,9.08
2023-05-15T00:08:37.654Z,9.82
2023-05-15T00:09:08.598Z,9.32
2023-05-15T00:09:39.530Z,10.17
2023-05-15T00:10:10.513Z,8.85
2023-05-15T00:10:47.539Z,9.36
2023-05-15T00:11:13.038Z,9.50
2023-05-15T00:11:42.472Z,9.87
2023-05-15T00:12:13.355Z,9.18
2023-05-15T00:12:44.261Z,9.28
2023-05-15T00:13:15.134Z,9.03
2023-05-15T00:13:46.030Z,8.74
2023-05-15T00:14:16.898Z,10.13
2023-05-15T00:14:48.055Z,9.48
2023-05-15T00:15:18.563Z,9.47
2023-05-15T00:15:49.227Z,8.78
2023-05-15T00:16:20.029Z,8.61
2023-05-15T00:16:50.534Z,10.15
2023-05-15T00:17:21.053Z,9.98
2023-05-15T00:17:51.830Z,9.62
2023-05-15T00:18:22.276Z,10.10
2023-05-15T00:18:53.214Z,10.20
2023-05-15T00:19:24.122Z,9.43
2023-05-15T00:19:55.026Z,9.73
2023-05-15T00:20:25.917Z,9.32
2023-05-15T00:20:56.811Z,9.31
2023-05-15T00:21:27.761Z,9.51
2023-05-15T00:21:58.879Z,9.77
2023-05-15T00:22:29.361Z,9.51
2023-05-15T00:23:00.567Z,9.64
2023-05-15T00:23:31.069Z,9.62
2023-05-15T00:24:02.222Z,8.87
2023-05-15T00:24:32.600Z,9.76
2023-05-15T00:25:03.509Z,9.26
2023-05-15T00:25:34.444Z,9.91
2023-05-15T00:26:05.392Z,9.66
2023-05-15T00:26:36.325Z,9.76
2023-05-15T00:27:07.206Z,9.44
2023-05-15T00:27:38.183Z,9.65
2023-05-15T00:28:09.126Z,9.69
2023-05-15T00:28:40.098Z,9.76
2023-05-15T00:29:11.065Z,9.61
2023-05-15T00:29:41.989Z,10.28
2023-05-15T00:30:12.868Z,9.32
2023-05-15T00:30:43.756Z,9.43
2023-05-15T00:31:14.697Z,9.14
2023-05-15T00:31:45.226Z,9.48
2023-05-15T00:32:15.683Z,8.85
2023-05-15T00:32:46.648Z,9.02
2023-05-15T00:33:17.543Z,9.86
2023-05-15T00:33:48.511Z,9.18
2023-05-15T00:34:19.441Z,9.13
2023-05-15T00:34:50.428Z,10.31
2023-05-15T00:35:20.935Z,9.55
2023-05-15T00:35:51.948Z,9.37
2023-05-15T00:36:22.431Z,9.28
2023-05-15T00:36:52.956Z,9.25
2023-05-15T00:37:23.326Z,9.43
2023-05-15T00:37:54.214Z,9.48
2023-05-15T00:38:25.105Z,9.26
2023-05-15T00:38:56.041Z,9.66
2023-05-15T00:39:26.954Z,9.10
2023-05-15T00:39:57.822Z,8.95
2023-05-15T00:40:28.750Z,10.28
2023-05-15T00:40:59.885Z,9.18
2023-05-15T00:41:30.409Z,8.94
2023-05-15T00:42:02.205Z,9.21
2023-05-15T00:42:31.458Z,9.19
2023-05-15T00:43:02.618Z,9.62
2023-05-15T00:43:33.125Z,9.29
2023-05-15T00:44:03.992Z,9.68
2023-05-15T00:44:34.879Z,9.43
2023-05-15T00:45:05.809Z,8.92
2023-05-15T00:45:36.709Z,9.36
2023-05-15T00:46:07.615Z,9.56
2023-05-15T00:46:38.876Z,9.82
2023-05-15T00:47:09.747Z,9.22
2023-05-15T00:47:40.017Z,10.37
2023-05-15T00:48:10.717Z,9.59
2023-05-15T00:48:41.209Z,9.48
2023-05-15T00:49:12.331Z,8.95
2023-05-15T00:49:42.833Z,9.29
2023-05-15T00:50:14.006Z,9.37
2023-05-15T00:50:44.415Z,9.02
2023-05-15T00:51:15.325Z,8.55
2023-05-15T00:51:46.259Z,9.58
2023-05-15T00:52:17.195Z,9.98
2023-05-15T00:52:48.065Z,9.59
2023-05-15T00:53:19.258Z,9.41
2023-05-15T00:53:49.774Z,9.02
2023-05-15T00:54:20.539Z,10.09
2023-05-15T00:54:51.067Z,9.50
2023-05-15T00:55:22.257Z,9.76
2023-05-15T00:55:52.862Z,9.97
2023-05-15T00:56:23.494Z,8.78
2023-05-15T00:56:53.973Z,9.87
2023-05-15T00:57:24.856Z,9.46
2023-05-15T00:57:55.748Z,9.89
2023-05-15T00:58:26.690Z,9.40
2023-05-15T00:58:57.595Z,8.82
2023-05-15T00:59:28.463Z,9.73
2023-05-15T00:59:59.457Z,9.47
2023-05-15T01:00:30.065Z,10.20
2023-05-15T01:01:00.638Z,9.66
2023-05-15T01:01:31.462Z,9.95
2023-05-15T01:02:01.809Z,10.22
2023-05-15T01:02:32.915Z,9.04
2023-05-15T01:03:03.280Z,9.25
2023-05-15T01:03:34.264Z,9.74
2023-05-15T01:04:04.690Z,9.65
2023-05-15T01:04:35.602Z,10.17
2023-05-15T01:05:06.481Z,9.59
2023-05-15T01:05:37.364Z,9.77
2023-05-15T01:06:08.262Z,9.50
2023-05-15T01:06:39.122Z,9.73
2023-05-15T01:07:10.089Z,9.91
2023-05-15T01:07:41.041Z,9.43
2023-05-15T01:08:11.991Z,9.98
2023-05-15T01:08:42.928Z,9.74
2023-05-15T01:09:13.968Z,9.66
2023-05-15T01:09:44.498Z,9.64
2023-05-15T01:10:14.862Z,9.29
2023-05-15T01:10:45.748Z,9.36
2023-05-15T01:11:16.636Z,8.94
2023-05-15T01:11:47.532Z,9.50
2023-05-15T01:12:18.434Z,9.04
2023-05-15T01:12:49.312Z,9.36
2023-05-15T01:13:20.312Z,9.29
2023-05-15T01:13:50.826Z,9.02
2023-05-15T01:14:21.806Z,9.41
2023-05-15T01:14:52.740Z,9.86
2023-05-15T01:15:23.834Z,10.19
2023-05-15T01:15:54.510Z,9.59
2023-05-15T01:16:25.398Z,9.34
2023-05-15T01:16:56.308Z,8.94
2023-05-15T01:17:27.241Z,9.29
2023-05-15T01:17:57.793Z,9.84
2023-05-15T01:18:28.894Z,9.62
2023-05-15T01:18:59.462Z,9.22
2023-05-15T01:19:30.437Z,10.54
2023-05-15T01:20:01.483Z,8.64
2023-05-15T01:20:32.494Z,9.55
2023-05-15T01:21:03.053Z,10.07
2023-05-15T01:21:33.701Z,9.22
2023-05-15T01:22:04.175Z,9.04
2023-05-15T01:22:35.381Z,10.02
2023-05-15T01:23:05.747Z,10.04
2023-05-15T01:23:36.638Z,9.46
2023-05-15T01:24:07.541Z,9.64
2023-05-15T01:24:38.440Z,9.82
2023-05-15T01:25:09.349Z,9.54
2023-05-15T01:25:40.257Z,10.54
2023-05-15T01:26:11.253Z,8.95
2023-05-15T01:26:41.698Z,9.50
2023-05-15T01:27:12.666Z,9.99
2023-05-15T01:27:43.633Z,9.37
2023-05-15T01:28:14.089Z,9.47
2023-05-15T01:28:45.037Z,9.54
2023-05-15T01:29:15.895Z,9.94
2023-05-15T01:29:46.764Z,9.92
2023-05-15T01:30:17.653Z,9.34
2023-05-15T01:30:48.529Z,9.48
2023-05-15T01:31:19.434Z,8.64
2023-05-15T01:31:50.395Z,8.89
2023-05-15T01:32:21.443Z,10.13
2023-05-15T01:32:51.968Z,9.76
2023-05-15T01:33:22.469Z,8.99
2023-05-15T01:33:53.487Z,8.67
2023-05-15T01:34:24.057Z,9.89
2023-05-15T01:34:54.535Z,9.72
2023-05-15T01:35:25.944Z,9.59
2023-05-15T01:35:56.001Z,9.14
2023-05-15T01:36:26.886Z,9.04
2023-05-15T01:36:57.764Z,9.19
2023-05-15T01:37:28.646Z,9.98
2023-05-15T01:37:59.554Z,9.32
2023-05-15T01:38:30.457Z,8.70
2023-05-15T01:39:01.323Z,10.25
2023-05-15T01:39:32.237Z,9.95
2023-05-15T01:40:03.222Z,9.64
2023-05-15T01:40:34.147Z,9.29
2023-05-15T01:41:05.096Z,9.46
2023-05-15T01:41:36.141Z,9.51
2023-05-15T01:42:06.526Z,9.13
2023-05-15T01:42:37.399Z,9.14
2023-05-15T01:43:08.308Z,9.55
2023-05-15T01:43:39.203Z,9.28
2023-05-15T01:44:10.120Z,9.14
2023-05-15T01:44:41.010Z,9.64
2023-05-15T01:45:11.918Z,8.89
2023-05-15T01:45:43.175Z,9.87
2023-05-15T01:46:13.696Z,8.99
2023-05-15T01:46:44.686Z,9.31
2023-05-15T01:47:15.042Z,9.26
2023-05-15T01:47:45.850Z,10.10
2023-05-15T01:48:16.384Z,9.97
2023-05-15T01:48:47.269Z,9.92
2023-05-15T01:49:18.164Z,9.43
2023-05-15T01:49:49.037Z,9.41
2023-05-15T01:50:19.929Z,9.65
2023-05-15T01:50:50.842Z,9.14
2023-05-15T01:51:21.749Z,9.48
2023-05-15T01:51:52.700Z,9.95
2023-05-15T01:52:23.208Z,9.47
2023-05-15T01:52:54.336Z,9.47
2023-05-15T01:53:24.880Z,8.97
2023-05-15T01:53:55.528Z,9.84
2023-05-15T01:54:26.160Z,9.06
2023-05-15T01:54:56.822Z,9.18
2023-05-15T01:55:27.441Z,9.18
2023-05-15T01:55:58.034Z,9.76
2023-05-15T01:56:28.960Z,8.19
2023-05-15T01:56:59.885Z,9.19
2023-05-15T01:57:30.778Z,8.85
2023-05-15T01:58:01.663Z,9.72
2023-05-15T01:58:32.546Z,9.87
2023-05-15T01:59:03.549Z,9.10
2023-05-15T01:59:34.475Z,9.48
2023-05-15T02:00:05.432Z,9.22
2023-05-15T02:00:36.399Z,9.04
2023-05-15T02:01:07.310Z,9.29
2023-05-15T02:01:38.255Z,9.40
2023-05-15T02:02:09.198Z,10.34
2023-05-15T02:02:40.264Z,9.73
2023-05-15T02:03:10.814Z,8.91
2023-05-15T02:03:41.334Z,8.92
2023-05-15T02:04:11.810Z,9.50
2023-05-15T02:04:42.934Z,9.44
2023-05-15T02:05:13.454Z,9.62
2023-05-15T02:05:44.178Z,10.33
2023-05-15T02:06:14.630Z,8.94
2023-05-15T02:06:45.841Z,9.79
2023-05-15T02:07:16.341Z,9.06
2023-05-15T02:07:47.306Z,9.46
2023-05-15T02:08:18.179Z,9.86
2023-05-15T02:08:49.108Z,9.02
2023-05-15T02:09:20.000Z,9.19
2023-05-15T02:09:50.922Z,8.92
2023-05-15T02:10:21.782Z,9.64
2023-05-15T02:10:52.728Z,9.31
2023-05-15T02:11:23.718Z,9.46
2023-05-15T02:11:54.857Z,9.58
2023-05-15T02:12:25.364Z,9.14
2023-05-15T02:12:56.505Z,9.97
2023-05-15T02:13:27.016Z,9.61
2023-05-15T02:13:57.709Z,10.12
2023-05-15T02:14:28.143Z,9.41
2023-05-15T02:14:59.049Z,9.82
2023-05-15T02:15:29.940Z,9.87
2023-05-15T02:16:00.844Z,9.21
2023-05-15T02:16:31.770Z,10.22
2023-05-15T02:17:02.672Z,9.66
2023-05-15T02:17:33.625Z,9.14
2023-05-15T02:18:04.609Z,9.22
2023-05-15T02:18:35.095Z,9.56
2023-05-15T02:19:06.122Z,9.99
2023-05-15T02:19:37.097Z,9.54
2023-05-15T02:20:08.083Z,9.76
2023-05-15T02:20:38.959Z,9.68
2023-05-15T02:21:09.914Z,9.10
2023-05-15T02:21:40.784Z,9.25
2023-05-15T02:22:11.659Z,9.58
2023-05-15T02:22:42.570Z,10.22
2023-05-15T02:23:13.807Z,10.13
2023-05-15T02:23:44.304Z,9.44
2023-05-15T02:24:15.562Z,9.44
2023-05-15T02:24:46.057Z,9.86
2023-05-15T02:25:17.195Z,10.05
2023-05-15T02:25:47.733Z,9.00
2023-05-15T02:26:18.398Z,9.80
2023-05-15T02:26:48.820Z,10.31
2023-05-15T02:27:19.729Z,9.65
2023-05-15T02:27:50.639Z,9.31
2023-05-15T02:28:21.524Z,9.43
2023-05-15T02:28:52.430Z,9.83
2023-05-15T02:29:23.307Z,9.69
2023-05-15T02:29:54.240Z,9.92
2023-05-15T02:30:25.402Z,9.51
2023-05-15T02:30:55.924Z,9.03
2023-05-15T02:31:27.142Z,8.92
2023-05-15T02:31:57.667Z,9.68
2023-05-15T02:32:28.378Z,9.43
2023-05-15T02:32:59.066Z,9.13
2023-05-15T02:33:29.989Z,9.46
2023-05-15T02:34:00.865Z,9.19
2023-05-15T02:34:31.728Z,9.97
2023-05-15T02:35:02.605Z,9.02
2023-05-15T02:35:33.491Z,9.43
2023-05-15T02:36:04.433Z,9.58
2023-05-15T02:36:35.303Z,9.08
2023-05-15T02:37:06.336Z,9.82
2023-05-15T02:37:36.830Z,9.61
2023-05-15T02:38:07.363Z,9.22
2023-05-15T02:38:37.823Z,10.02
2023-05-15T02:39:08.782Z,9.62
2023-05-15T02:39:39.724Z,10.15
2023-05-15T02:40:10.600Z,9.62
2023-05-15T02:40:41.498Z,9.39
2023-05-15T02:41:12.421Z,9.87
2023-05-15T02:41:43.313Z,9.54
2023-05-15T02:42:14.214Z,8.78
2023-05-15T02:42:45.178Z,8.52
2023-05-15T02:43:16.129Z,9.56
2023-05-15T02:43:47.086Z,8.51
2023-05-15T02:44:18.033Z,9.03
2023-05-15T02:44:49.004Z,9.64
2023-05-15T02:45:19.879Z,9.50
2023-05-15T02:45:50.850Z,8.94
2023-05-15T02:46:21.833Z,9.23
2023-05-15T02:46:52.307Z,8.70
2023-05-15T02:47:23.204Z,8.58
2023-05-15T02:47:54.111Z,9.91
2023-05-15T02:48:25.003Z,9.21
2023-05-15T02:48:55.869Z,10.33
2023-05-15T02:49:27.093Z,9.34
2023-05-15T02:49:57.813Z,8.88
2023-05-15T02:50:28.517Z,9.47
2023-05-15T02:50:59.059Z,9.76
2023-05-15T02:51:29.739Z,8.52
2023-05-15T02:52:00.149Z,9.80
2023-05-15T02:52:31.050Z,10.02
2023-05-15T02:53:01.961Z,9.43
2023-05-15T02:53:32.865Z,9.94
2023-05-15T02:54:03.874Z,9.84
2023-05-15T02:54:34.243Z,9.16
2023-05-15T02:55:05.277Z,9.43
2023-05-15T02:55:35.910Z,8.82
2023-05-15T02:56:06.316Z,8.92
2023-05-15T02:56:37.262Z,9.36
2023-05-15T02:57:08.207Z,9.18
2023-05-15T02:57:39.152Z,8.74
2023-05-15T02:58:10.187Z,9.43
2023-05-15T02:58:40.622Z,9.04
2023-05-15T02:59:11.513Z,9.84
2023-05-15T02:59:42.404Z,9.13
2023-05-15T03:00:13.309Z,9.86
2023-05-15T03:00:44.161Z,9.82
2023-05-15T03:01:15.106Z,9.58
2023-05-15T03:01:46.049Z,9.86
2023-05-15T03:02:17.031Z,9.34
2023-05-15T03:02:47.692Z,8.97
2023-05-15T03:03:18.336Z,8.63
2023-05-15T03:03:48.893Z,9.10
2023-05-15T03:04:19.619Z,9.06
2023-05-15T03:04:50.164Z,9.21
2023-05-15T03:05:20.814Z,9.23
2023-05-15T03:05:51.224Z,9.62
2023-05-15T03:06:22.113Z,8.70
2023-05-15T03:06:53.003Z,9.62
2023-05-15T03:07:23.883Z,9.19
2023-05-15T03:07:54.752Z,9.50
2023-05-15T03:08:25.649Z,9.41
2023-05-15T03:08:56.576Z,9.26
2023-05-15T03:09:27.547Z,9.00
2023-05-15T03:09:58.489Z,8.95
2023-05-15T03:10:29.434Z,9.61
2023-05-15T03:11:00.467Z,9.04
2023-05-15T03:11:30.920Z,9.21
2023-05-15T03:12:01.826Z,10.42
2023-05-15T03:12:32.715Z,9.56
2023-05-15T03:13:03.600Z,9.48
2023-05-15T03:13:34.511Z,8.44
2023-05-15T03:14:05.421Z,9.55
2023-05-15T03:14:36.444Z,9.62
2023-05-15T03:15:06.824Z,9.48
2023-05-15T03:15:37.706Z,10.59
2023-05-15T03:16:08.747Z,9.25
2023-05-15T03:16:39.278Z,9.50
2023-05-15T03:17:10.248Z,9.55
2023-05-15T03:17:40.575Z,9.25
2023-05-15T03:18:11.547Z,9.76
2023-05-15T03:18:42.043Z,9.56
2023-05-15T03:19:13.021Z,9.62
2023-05-15T03:19:43.455Z,9.58
2023-05-15T03:20:14.364Z,9.98
2023-05-15T03:20:45.295Z,9.69
2023-05-15T03:21:16.163Z,9.77
2023-05-15T03:21:47.100Z,9.39
2023-05-15T03:22:18.096Z,9.99
2023-05-15T03:22:48.972Z,9.19
2023-05-15T03:23:20.006Z,9.64
2023-05-15T03:23:50.665Z,10.38
2023-05-15T03:24:21.466Z,8.60
2023-05-15T03:24:51.885Z,8.88
2023-05-15T03:25:22.967Z,9.46
2023-05-15T03:25:53.303Z,9.03
2023-05-15T03:26:24.209Z,9.18
2023-05-15T03:26:55.095Z,9.65
2023-05-15T03:27:25.963Z,8.97
2023-05-15T03:27:57.136Z,8.73
2023-05-15T03:28:27.545Z,9.54
2023-05-15T03:28:58.488Z,8.82
2023-05-15T03:29:29.412Z,9.84
2023-05-15T03:30:00.379Z,8.81
2023-05-15T03:30:31.411Z,9.73
2023-05-15T03:31:01.894Z,8.82
2023-05-15T03:31:32.406Z,9.43
2023-05-15T03:32:02.851Z,9.21
2023-05-15T03:32:33.812Z,9.92
2023-05-15T03:33:04.748Z,9.41
2023-05-15T03:33:35.737Z,8.81
2023-05-15T03:34:06.218Z,9.08
2023-05-15T03:34:38.007Z,9.95
2023-05-15T03:35:07.647Z,9.28
2023-05-15T03:35:38.460Z,9.08
2023-05-15T03:36:09.342Z,9.11
2023-05-15T03:36:40.215Z,9.00
2023-05-15T03:37:11.111Z,8.33
2023-05-15T03:37:41.979Z,9.82
2023-05-15T03:38:12.781Z,8.67
2023-05-15T03:38:43.699Z,9.72
2023-05-15T03:39:14.540Z,9.03
2023-05-15T03:39:45.401Z,9.11
2023-05-15T03:40:16.229Z,9.69
2023-05-15T03:40:48.409Z,9.10
2023-05-15T03:41:17.966Z,9.25
2023-05-15T03:41:48.373Z,9.66
2023-05-15T03:42:19.245Z,9.47
2023-05-15T03:42:50.137Z,10.01
2023-05-15T03:43:21.096Z,9.47
2023-05-15T03:43:52.030Z,9.18
2023-05-15T03:44:22.855Z,9.03
2023-05-15T03:44:53.706Z,9.99
2023-05-15T03:45:24.876Z,9.22
2023-05-15T03:45:55.478Z,8.97
2023-05-15T03:46:25.939Z,9.31
2023-05-15T03:46:56.950Z,9.54
2023-05-15T03:47:27.431Z,9.25
2023-05-15T03:47:58.299Z,9.47
2023-05-15T03:48:29.231Z,8.00
2023-05-15T03:49:00.426Z,9.69
2023-05-15T03:49:30.873Z,9.41
2023-05-15T03:50:01.955Z,9.22
2023-05-15T03:50:32.408Z,9.68
2023-05-15T03:51:03.236Z,8.84
2023-05-15T03:51:34.084Z,9.73
2023-05-15T03:52:05.008Z,8.94
2023-05-15T03:52:35.870Z,10.22
2023-05-15T03:53:06.725Z,8.70
2023-05-15T03:53:37.543Z,9.61
2023-05-15T03:54:08.455Z,9.62
2023-05-15T03:54:39.359Z,8.88
2023-05-15T03:55:10.296Z,9.19
2023-05-15T03:55:41.311Z,9.64
2023-05-15T03:56:11.820Z,9.55
2023-05-15T03:56:42.854Z,9.98
2023-05-15T03:57:13.176Z,10.02
2023-05-15T03:57:44.044Z,9.89
2023-05-15T03:58:14.886Z,9.39
2023-05-15T03:58:45.770Z,9.41
2023-05-15T03:59:16.662Z,8.73
2023-05-15T03:59:47.579Z,9.31
2023-05-15T04:00:19.174Z,8.74
2023-05-15T04:00:49.392Z,9.23
2023-05-15T04:01:19.877Z,9.97
2023-05-15T04:02:03.492Z,9.59
2023-05-15T04:02:22.489Z,9.86
2023-05-15T04:02:52.282Z,9.22
2023-05-15T04:03:22.934Z,8.38
2023-05-15T04:03:53.595Z,9.19
2023-05-15T04:04:23.934Z,8.44
2023-05-15T04:04:54.832Z,9.36
2023-05-15T04:05:25.944Z,9.77
2023-05-15T04:05:56.647Z,9.22
2023-05-15T04:06:27.488Z,10.16
2023-05-15T04:06:58.354Z,9.08
2023-05-15T04:07:29.252Z,8.01
2023-05-15T04:08:00.213Z,9.58
2023-05-15T04:08:31.330Z,8.71
2023-05-15T04:09:01.790Z,9.23
2023-05-15T04:09:32.963Z,8.69
2023-05-15T04:10:03.412Z,9.18
2023-05-15T04:10:34.248Z,9.41
2023-05-15T04:11:05.087Z,9.54
2023-05-15T04:11:35.987Z,9.72
2023-05-15T04:12:06.835Z,9.73
2023-05-15T04:12:37.657Z,9.55
2023-05-15T04:13:08.489Z,9.13
2023-05-15T04:13:39.297Z,9.87
2023-05-15T04:14:10.274Z,9.51
2023-05-15T04:14:41.147Z,8.73
2023-05-15T04:15:12.017Z,9.31
2023-05-15T04:15:42.906Z,9.48
2023-05-15T04:16:13.887Z,9.51
2023-05-15T04:16:44.304Z,9.56
2023-05-15T04:17:14.774Z,9.66
2023-05-15T04:17:45.672Z,9.39
2023-05-15T04:18:16.604Z,9.72
2023-05-15T04:18:47.497Z,10.31
2023-05-15T04:19:18.420Z,9.56
2023-05-15T04:19:49.404Z,9.47
2023-05-15T04:20:20.270Z,9.22
2023-05-15T04:20:51.155Z,9.56
2023-05-15T04:21:22.120Z,9.40
2023-05-15T04:21:53.070Z,9.47
2023-05-15T04:22:24.062Z,9.47
2023-05-15T04:22:54.885Z,9.48
2023-05-15T04:23:25.743Z,8.67
2023-05-15T04:23:56.625Z,10.05
2023-05-15T04:24:27.458Z,9.26
2023-05-15T04:24:58.355Z,9.56
2023-05-15T04:25:29.200Z,9.31
2023-05-15T04:26:00.043Z,8.84
2023-05-15T04:26:30.889Z,9.64
2023-05-15T04:27:01.797Z,9.44
2023-05-15T04:27:33.007Z,8.81
2023-05-15T04:28:03.459Z,9.94
2023-05-15T04:28:34.585Z,9.19
2023-05-15T04:29:05.066Z,9.25
2023-05-15T04:29:35.443Z,9.50
2023-05-15T04:30:06.308Z,9.08
2023-05-15T04:30:37.181Z,10.33
2023-05-15T04:31:08.005Z,9.14
2023-05-15T04:31:38.871Z,9.50
2023-05-15T04:32:09.744Z,9.40
2023-05-15T04:32:40.717Z,9.21
2023-05-15T04:33:11.700Z,9.77
2023-05-15T04:33:42.540Z,9.44
2023-05-15T04:34:15.462Z,8.63
2023-05-15T04:34:44.568Z,9.91
2023-05-15T04:35:14.957Z,9.26
2023-05-15T04:35:45.831Z,9.92
2023-05-15T04:36:16.681Z,9.97
2023-05-15T04:36:47.531Z,9.58
2023-05-15T04:37:18.379Z,9.04
2023-05-15T04:37:49.293Z,9.72
2023-05-15T04:38:20.125Z,9.44
2023-05-15T04:38:51.236Z,9.66
2023-05-15T04:39:21.691Z,9.87
2023-05-15T04:39:52.845Z,9.44
2023-05-15T04:40:23.237Z,9.29
2023-05-15T04:40:54.445Z,9.74
2023-05-15T04:41:24.882Z,9.06
2023-05-15T04:41:55.701Z,9.80
2023-05-15T04:42:26.590Z,10.01
2023-05-15T04:42:57.510Z,9.32
2023-05-15T04:43:28.397Z,9.65
2023-05-15T04:43:59.240Z,9.13
2023-05-15T04:44:30.057Z,9.16
2023-05-15T04:45:01.234Z,9.46
2023-05-15T04:45:31.542Z,8.61
2023-05-15T04:46:02.571Z,8.99
2023-05-15T04:46:33.177Z,9.50
2023-05-15T04:47:03.890Z,9.72
2023-05-15T04:47:34.861Z,10.22
2023-05-15T04:48:05.459Z,9.13
2023-05-15T04:48:35.855Z,9.97
2023-05-15T04:49:06.677Z,9.29
2023-05-15T04:49:37.505Z,8.78
2023-05-15T04:50:08.359Z,9.41
2023-05-15T04:51:20.020Z,9.50
2023-05-15T04:51:50.488Z,9.43
2023-05-15T04:52:21.312Z,9.87
2023-05-15T04:52:52.168Z,9.48
2023-05-15T04:53:23.059Z,9.13
2023-05-15T04:53:53.878Z,9.48
2023-05-15T04:54:24.771Z,10.15
2023-05-15T04:54:56.207Z,10.34
2023-05-15T04:55:26.623Z,9.87
2023-05-15T04:55:57.022Z,8.88
2023-05-15T04:56:27.504Z,9.37
2023-05-15T04:56:58.699Z,9.95
2023-05-15T04:57:29.022Z,9.91
2023-05-15T04:57:59.853Z,9.59
2023-05-15T04:58:30.689Z,10.34
2023-05-15T04:59:01.591Z,9.18
2023-05-15T04:59:32.434Z,9.89
2023-05-15T05:00:03.250Z,9.28
2023-05-15T05:00:34.081Z,9.99
2023-05-15T05:01:05.010Z,10.09
2023-05-15T05:01:35.648Z,10.12
2023-05-15T05:02:06.193Z,9.56
2023-05-15T05:02:36.875Z,9.54
2023-05-15T05:03:07.358Z,9.82
2023-05-15T05:03:37.937Z,10.42
2023-05-15T05:04:08.464Z,9.44
2023-05-15T05:04:39.003Z,9.58
2023-05-15T05:05:09.861Z,9.61
2023-05-15T05:05:40.711Z,9.54
2023-05-15T05:06:11.352Z,9.97
2023-05-15T05:06:42.212Z,9.48
2023-05-15T05:07:13.079Z,9.73
2023-05-15T05:07:44.248Z,9.32
2023-05-15T05:08:14.760Z,9.22
2023-05-15T05:08:45.207Z,9.50
2023-05-15T05:09:16.031Z,9.98
2023-05-15T05:09:46.901Z,9.86
2023-05-15T05:10:17.883Z,9.43
2023-05-15T05:10:48.400Z,9.37
2023-05-15T05:11:19.245Z,9.58
2023-05-15T05:11:50.128Z,10.13
2023-05-15T05:12:21.039Z,10.12
2023-05-15T05:12:51.695Z,9.26
2023-05-15T05:13:22.667Z,9.22
2023-05-15T05:13:53.511Z,9.10
2023-05-15T05:14:24.419Z,9.50
2023-05-15T05:14:55.350Z,9.39
2023-05-15T05:15:26.727Z,9.84
2023-05-15T05:15:57.035Z,9.25
2023-05-15T05:16:28.028Z,9.36
2023-05-15T05:16:58.575Z,9.37
2023-05-15T05:17:31.534Z,10.19
2023-05-15T05:18:00.443Z,10.02
2023-05-15T05:18:31.404Z,9.97
2023-05-15T05:19:02.314Z,9.46
2023-05-15T05:19:33.001Z,10.10
2023-05-15T05:20:03.817Z,10.41
2023-05-15T05:20:34.680Z,9.89
2023-05-15T05:21:05.864Z,9.64
2023-05-15T05:21:36.289Z,10.53
2023-05-15T05:22:07.278Z,10.12
2023-05-15T05:22:38.223Z,10.31
2023-05-15T05:23:09.181Z,10.53
2023-05-15T05:23:40.000Z,9.95
2023-05-15T05:24:10.858Z,9.74
2023-05-15T05:24:41.441Z,9.94
2023-05-15T05:25:12.315Z,9.48
2023-05-15T05:25:43.199Z,9.46
2023-05-15T05:26:14.039Z,10.01
2023-05-15T05:26:44.892Z,9.55
2023-05-15T05:27:15.823Z,9.72
2023-05-15T05:27:46.894Z,9.87
2023-05-15T05:28:17.413Z,9.39
2023-05-15T05:28:48.427Z,9.73
2023-05-15T05:29:18.813Z,9.72
2023-05-15T05:29:49.735Z,10.97
2023-05-15T05:30:20.564Z,9.72
2023-05-15T05:30:51.450Z,9.87
2023-05-15T05:31:22.363Z,10.46
2023-05-15T05:31:53.365Z,10.19
2023-05-15T05:32:24.297Z,9.76
2023-05-15T05:32:55.159Z,9.54
2023-05-15T05:33:26.116Z,10.07
2023-05-15T05:33:57.189Z,10.04
2023-05-15T05:34:27.624Z,9.64
2023-05-15T05:34:58.882Z,10.64
2023-05-15T05:35:29.404Z,10.13
2023-05-15T05:36:00.528Z,9.83
2023-05-15T05:36:30.858Z,10.20
2023-05-15T05:37:01.709Z,10.69
2023-05-15T05:37:32.599Z,10.13
2023-05-15T05:38:03.444Z,10.53
2023-05-15T05:38:34.290Z,10.42
2023-05-15T05:39:05.103Z,10.33
2023-05-15T05:39:35.996Z,9.98
2023-05-15T05:40:06.845Z,9.41
2023-05-15T05:40:37.804Z,9.25
2023-05-15T05:41:08.692Z,10.28
2023-05-15T05:41:39.756Z,9.86
2023-05-15T05:42:10.220Z,10.17
2023-05-15T05:42:41.068Z,10.60
2023-05-15T05:43:11.922Z,9.98
2023-05-15T05:43:42.794Z,10.89
2023-05-15T05:44:13.753Z,10.60
2023-05-15T05:44:44.603Z,10.78
2023-05-15T05:45:15.494Z,10.38
2023-05-15T05:45:46.342Z,10.46
2023-05-15T05:46:17.222Z,10.16
2023-05-15T05:46:48.300Z,10.20
2023-05-15T05:47:18.782Z,10.67
2023-05-15T05:47:49.823Z,10.37
2023-05-15T05:48:20.203Z,10.15
2023-05-15T05:48:51.075Z,10.41
2023-05-15T05:49:21.921Z,10.13
2023-05-15T05:49:52.769Z,9.86
2023-05-15T05:50:23.622Z,10.53
2023-05-15T05:50:54.820Z,10.76
2023-05-15T05:51:25.172Z,10.61
2023-05-15T05:51:56.048Z,10.07
2023-05-15T05:52:26.948Z,10.28
2023-05-15T05:52:57.875Z,10.64
2023-05-15T05:53:28.793Z,10.90
2023-05-15T05:53:59.782Z,10.04
2023-05-15T05:54:30.729Z,10.51
2023-05-15T05:55:01.667Z,10.28
2023-05-15T05:55:32.330Z,10.04
2023-05-15T05:56:03.180Z,9.69
2023-05-15T05:56:34.032Z,10.23
2023-05-15T05:57:04.861Z,9.58
2023-05-15T05:57:35.732Z,10.28
2023-05-15T05:58:37.386Z,9.64
2023-05-15T05:59:08.401Z,10.28
2023-05-15T05:59:39.368Z,11.36
2023-05-15T06:00:10.260Z,10.30
2023-05-15T06:00:41.248Z,10.40
2023-05-15T06:01:12.077Z,11.51
2023-05-15T06:01:43.001Z,10.25
2023-05-15T06:02:13.893Z,10.56
2023-05-15T06:02:44.917Z,10.35
2023-05-15T06:03:15.407Z,10.05
2023-05-15T06:03:46.360Z,10.53
2023-05-15T06:04:18.318Z,10.78
2023-05-15T06:04:47.820Z,10.13
2023-05-15T06:05:18.767Z,9.98
2023-05-15T06:05:49.712Z,10.04
2023-05-15T06:06:20.686Z,9.47
2023-05-15T06:06:51.578Z,10.53
2023-05-15T06:07:22.398Z,11.12
2023-05-15T06:07:53.248Z,10.87
2023-05-15T06:08:24.075Z,10.41
2023-05-15T06:08:56.502Z,10.31
2023-05-15T06:09:25.582Z,11.08
2023-05-15T06:09:56.439Z,10.46
2023-05-15T06:10:27.452Z,9.76
2023-05-15T06:10:58.468Z,10.93
2023-05-15T06:11:28.932Z,10.17
2023-05-15T06:12:00.113Z,11.57
2023-05-15T06:12:31.184Z,10.89
2023-05-15T06:13:01.145Z,10.61
2023-05-15T06:13:32.027Z,10.37
2023-05-15T06:14:02.853Z,11.25
2023-05-15T06:14:33.834Z,10.69
2023-05-15T06:15:04.490Z,10.99
2023-05-15T06:15:35.373Z,10.05
2023-05-15T06:16:06.215Z,10.63
2023-05-15T06:16:37.076Z,11.26
2023-05-15T06:17:08.426Z,10.75
2023-05-15T06:17:38.731Z,11.10
2023-05-15T06:18:09.339Z,10.34
2023-05-15T06:18:39.785Z,10.97
2023-05-15T06:19:10.778Z,9.92
2023-05-15T06:19:41.356Z,10.78
2023-05-15T06:20:11.846Z,11.54
2023-05-15T06:20:42.680Z,11.30
2023-05-15T06:21:13.543Z,11.81
2023-05-15T06:21:44.475Z,10.67
2023-05-15T06:22:15.353Z,11.63
2023-05-15T06:22:46.215Z,10.82
2023-05-15T06:23:17.105Z,11.26
2023-05-15T06:23:48.102Z,10.31
2023-05-15T06:24:18.496Z,11.27
2023-05-15T06:24:49.572Z,11.18
2023-05-15T06:25:20.029Z,11.02
2023-05-15T06:25:50.954Z,11.18
2023-05-15T06:26:21.903Z,11.10
2023-05-15T06:26:52.784Z,11.51
2023-05-15T06:27:23.670Z,11.27
2023-05-15T06:27:54.590Z,10.94
2023-05-15T06:28:25.477Z,11.25
2023-05-15T06:28:56.317Z,11.00
2023-05-15T06:29:27.213Z,11.73
2023-05-15T06:29:58.055Z,11.11
2023-05-15T06:30:29.493Z,11.07
2023-05-15T06:31:00.013Z,11.12
2023-05-15T06:31:30.655Z,11.41
2023-05-15T06:32:01.242Z,10.69
2023-05-15T06:32:34.288Z,11.55
2023-05-15T06:33:02.738Z,11.27
2023-05-15T06:33:33.567Z,10.59
2023-05-15T06:34:04.418Z,11.65
2023-05-15T06:34:35.283Z,12.21
2023-05-15T06:35:06.125Z,10.90
2023-05-15T06:35:36.985Z,10.86
2023-05-15T06:36:07.817Z,11.63
2023-05-15T06:36:38.789Z,12.07
2023-05-15T06:37:09.764Z,12.21
2023-05-15T06:37:40.756Z,11.41
2023-05-15T06:38:11.315Z,11.04
2023-05-15T06:38:42.182Z,11.90
2023-05-15T06:39:13.142Z,11.22
2023-05-15T06:39:43.997Z,11.41
2023-05-15T06:40:14.831Z,10.60
2023-05-15T06:40:45.715Z,10.81
2023-05-15T06:41:16.586Z,11.69
2023-05-15T06:41:47.439Z,11.57
2023-05-15T06:42:18.272Z,11.62
2023-05-15T06:42:49.230Z,11.04
2023-05-15T06:43:20.198Z,11.35
2023-05-15T06:43:50.696Z,11.08
2023-05-15T06:44:22.641Z,10.72
2023-05-15T06:44:52.867Z,10.68
2023-05-15T06:45:23.532Z,10.94
2023-05-15T06:45:53.966Z,11.17
2023-05-15T06:46:24.825Z,12.17
2023-05-15T06:46:55.809Z,11.36
2023-05-15T06:47:26.324Z,10.86
2023-05-15T06:47:59.894Z,12.37